Soldotna, AK (99669)

9:03 AM AKDT on September 01, 2015 (GMT -0800)
Ridgewood Dr. Mooring Estates Subdivision | | Change Station
CLOSE
Current Station
Personal Weather Station
Location: Soldotna, AK
Elevation: 93 ft
Nearby Weather Stations

Elev 93 ft 60.50 °N, 151.10 °W | Updated 50 seconds ago

Clear
Clear
41.5 °F
Feels Like 42 °F
N
1.6
Wind Variable Wind from SE
Gusts 3.1 mph

Today
High -- | Low -- °F
--% Chance of Precip.
Yesterday
High -- | Low -- °F
Precip. -- in
6:57 AM 9:09 PM
Waning Gibbous, 88% visible
Pressure 30.01 in
Visibility 10.0 miles
Clouds Clear
Windchill 42 °F
Dew Point 32 °F
Humidity 67%
Rainfall 0.00 in
Snow Depth Not available.
UV 1 out of 12
Pollen Not available.
Air Quality Not available.
Flu Activity Not available.
METAR PAEN 011653Z 07004KT 10SM CLR 08/02 A3001 RMK AO2 SLP163 T00830017
Pressure 30.01 in
Visibility 10.0 miles
Clouds Clear
Windchill 42 °F
Dew Point 32 °F
Humidity 67%
Rainfall 0.00 in
Snow Depth Not available.
UV 1 out of 12
Pollen Not available.
Air Quality Not available.
Flu Activity Not available.
METAR PAEN 011653Z 07004KT 10SM CLR 08/02 A3001 RMK AO2 SLP163 T00830017

10-Day Weather Forecast

×

Almanac

Astronomy

Sep. 01, 2015 Rise Set
Actual Time
Civil Twilight
Nautical Twilight
Astronomical Twilight
Moon
Length of Visible Light
Length of Day
Tomorrow will be .
, % of the Moon is Illuminated

Today's Extremes

State Highs State Lows

Community

WunderPhotos

Upload Photos

1,851,568 photos uploaded!

WunderBlogs® & News

Nearby

Air Quality

  Air Quality AQ Index Pollutant
Not available.

Snow Depth

Station Depth Elevation

Earthquake Activity

City Distance Mag. Time & Date
Minimum magnitude displayed is 2.5.

Coastal Water Temperatures

Place Temperature

Stations

Nearby Weather Stations

Station Location Temp. Windchill Dew Point Humidity Wind Precip. Elev Updated Type